sensor_id;sensor_type;location;lat;lon;timestamp;temperature;humidity
14884;DHT22;7534;50.762;7.000;2022-07-29T00:00:53;19.90;92.00
14884;DHT22;7534;50.762;7.000;2022-07-29T00:03:19;20.00;92.20
14884;DHT22;7534;50.762;7.000;2022-07-29T00:05:44;20.00;92.30
14884;DHT22;7534;50.762;7.000;2022-07-29T00:08:10;20.00;92.30
14884;DHT22;7534;50.762;7.000;2022-07-29T00:10:36;20.00;92.40
14884;DHT22;7534;50.762;7.000;2022-07-29T00:13:02;20.00;92.40
14884;DHT22;7534;50.762;7.000;2022-07-29T00:15:28;20.00;92.40
14884;DHT22;7534;50.762;7.000;2022-07-29T00:17:53;20.00;92.30
14884;DHT22;7534;50.762;7.000;2022-07-29T00:20:19;20.00;92.30
14884;DHT22;7534;50.762;7.000;2022-07-29T00:22:45;20.00;92.40
14884;DHT22;7534;50.762;7.000;2022-07-29T00:25:12;20.00;92.30
14884;DHT22;7534;50.762;7.000;2022-07-29T00:27:38;20.00;92.30
14884;DHT22;7534;50.762;7.000;2022-07-29T00:30:05;20.10;92.40
14884;DHT22;7534;50.762;7.000;2022-07-29T00:32:32;20.10;92.40
14884;DHT22;7534;50.762;7.000;2022-07-29T00:34:57;20.00;92.20
14884;DHT22;7534;50.762;7.000;2022-07-29T00:37:41;20.00;92.20
14884;DHT22;7534;50.762;7.000;2022-07-29T00:40:08;20.00;92.20
14884;DHT22;7534;50.762;7.000;2022-07-29T00:42:48;20.00;92.30
14884;DHT22;7534;50.762;7.000;2022-07-29T00:45:15;19.90;92.40
14884;DHT22;7534;50.762;7.000;2022-07-29T00:47:42;19.90;92.50
14884;DHT22;7534;50.762;7.000;2022-07-29T00:50:09;19.90;92.50
14884;DHT22;7534;50.762;7.000;2022-07-29T00:52:38;19.90;92.60
14884;DHT22;7534;50.762;7.000;2022-07-29T00:55:08;19.90;92.80
14884;DHT22;7534;50.762;7.000;2022-07-29T00:57:35;19.90;92.90
14884;DHT22;7534;50.762;7.000;2022-07-29T01:00:06;19.90;93.10
14884;DHT22;7534;50.762;7.000;2022-07-29T01:02:37;19.90;93.10
14884;DHT22;7534;50.762;7.000;2022-07-29T01:05:04;19.90;93.10
14884;DHT22;7534;50.762;7.000;2022-07-29T01:07:32;19.90;93.10
14884;DHT22;7534;50.762;7.000;2022-07-29T01:10:04;19.90;93.20
14884;DHT22;7534;50.762;7.000;2022-07-29T01:12:35;20.00;93.00
14884;DHT22;7534;50.762;7.000;2022-07-29T01:15:06;19.90;93.10
14884;DHT22;7534;50.762;7.000;2022-07-29T01:20:51;19.90;93.50
14884;DHT22;7534;50.762;7.000;2022-07-29T01:24:30;19.90;93.50
14884;DHT22;7534;50.762;7.000;2022-07-29T01:30:04;19.90;93.50
14884;DHT22;7534;50.762;7.000;2022-07-29T01:32:33;19.80;93.50
14884;DHT22;7534;50.762;7.000;2022-07-29T01:35:06;19.80;93.60
14884;DHT22;7534;50.762;7.000;2022-07-29T01:37:45;19.80;93.70
14884;DHT22;7534;50.762;7.000;2022-07-29T01:40:20;19.70;93.60
14884;DHT22;7534;50.762;7.000;2022-07-29T01:42:56;19.70;93.70
14884;DHT22;7534;50.762;7.000;2022-07-29T01:45:43;19.60;93.90
14884;DHT22;7534;50.762;7.000;2022-07-29T01:48:30;19.60;94.10
14884;DHT22;7534;50.762;7.000;2022-07-29T01:51:08;19.50;94.20
14884;DHT22;7534;50.762;7.000;2022-07-29T01:54:02;19.50;94.20
14884;DHT22;7534;50.762;7.000;2022-07-29T01:56:36;19.40;94.40
14884;DHT22;7534;50.762;7.000;2022-07-29T01:59:06;19.30;94.50
14884;DHT22;7534;50.762;7.000;2022-07-29T02:01:35;19.20;94.60
14884;DHT22;7534;50.762;7.000;2022-07-29T02:04:05;19.20;94.90
14884;DHT22;7534;50.762;7.000;2022-07-29T02:06:33;19.10;95.00
14884;DHT22;7534;50.762;7.000;2022-07-29T02:09:03;19.00;95.20
14884;DHT22;7534;50.762;7.000;2022-07-29T02:11:33;18.90;95.40
14884;DHT22;7534;50.762;7.000;2022-07-29T02:14:01;18.80;95.60
14884;DHT22;7534;50.762;7.000;2022-07-29T02:16:30;18.60;96.00
14884;DHT22;7534;50.762;7.000;2022-07-29T02:19:00;18.50;95.90
14884;DHT22;7534;50.762;7.000;2022-07-29T02:21:26;18.50;96.10
14884;DHT22;7534;50.762;7.000;2022-07-29T02:23:56;18.30;96.20
14884;DHT22;7534;50.762;7.000;2022-07-29T02:26:26;18.30;96.70
14884;DHT22;7534;50.762;7.000;2022-07-29T02:28:56;18.10;96.80
14884;DHT22;7534;50.762;7.000;2022-07-29T02:31:26;18.00;97.00
14884;DHT22;7534;50.762;7.000;2022-07-29T02:33:58;17.90;97.20
14884;DHT22;7534;50.762;7.000;2022-07-29T02:36:25;17.70;97.40
14884;DHT22;7534;50.762;7.000;2022-07-29T02:38:52;17.60;97.60
14884;DHT22;7534;50.762;7.000;2022-07-29T02:41:44;17.10;98.40
14884;DHT22;7534;50.762;7.000;2022-07-29T02:44:15;17.30;98.40
14884;DHT22;7534;50.762;7.000;2022-07-29T02:46:53;17.50;98.10
14884;DHT22;7534;50.762;7.000;2022-07-29T02:49:57;17.60;97.80
14884;DHT22;7534;50.762;7.000;2022-07-29T02:52:43;17.80;97.60
14884;DHT22;7534;50.762;7.000;2022-07-29T02:55:22;17.90;97.40
14884;DHT22;7534;50.762;7.000;2022-07-29T02:57:58;17.80;97.40
14884;DHT22;7534;50.762;7.000;2022-07-29T03:00:32;17.90;97.30
14884;DHT22;7534;50.762;7.000;2022-07-29T03:03:04;17.90;97.20
14884;DHT22;7534;50.762;7.000;2022-07-29T03:05:37;17.90;97.00
14884;DHT22;7534;50.762;7.000;2022-07-29T03:08:04;17.90;97.00
14884;DHT22;7534;50.762;7.000;2022-07-29T03:10:33;18.00;96.80
14884;DHT22;7534;50.762;7.000;2022-07-29T03:13:00;18.00;96.60
14884;DHT22;7534;50.762;7.000;2022-07-29T03:15:27;18.00;96.80
14884;DHT22;7534;50.762;7.000;2022-07-29T03:17:53;17.80;96.80
14884;DHT22;7534;50.762;7.000;2022-07-29T03:20:19;17.70;96.70
14884;DHT22;7534;50.762;7.000;2022-07-29T03:22:45;17.90;96.50
14884;DHT22;7534;50.762;7.000;2022-07-29T03:25:16;18.10;96.20
14884;DHT22;7534;50.762;7.000;2022-07-29T03:27:43;18.20;96.10
14884;DHT22;7534;50.762;7.000;2022-07-29T03:30:11;18.20;96.10
14884;DHT22;7534;50.762;7.000;2022-07-29T03:32:38;18.10;96.20
14884;DHT22;7534;50.762;7.000;2022-07-29T03:35:06;18.10;96.30
14884;DHT22;7534;50.762;7.000;2022-07-29T03:37:32;18.00;96.50
14884;DHT22;7534;50.762;7.000;2022-07-29T03:40:00;18.10;96.40
14884;DHT22;7534;50.762;7.000;2022-07-29T03:42:30;18.00;96.40
14884;DHT22;7534;50.762;7.000;2022-07-29T03:45:01;18.10;96.50
14884;DHT22;7534;50.762;7.000;2022-07-29T03:47:33;18.10;96.30
14884;DHT22;7534;50.762;7.000;2022-07-29T03:50:06;18.10;96.40
14884;DHT22;7534;50.762;7.000;2022-07-29T03:52:34;18.10;96.40
14884;DHT22;7534;50.762;7.000;2022-07-29T03:55:01;18.00;96.50
14884;DHT22;7534;50.762;7.000;2022-07-29T03:57:28;18.10;96.70
14884;DHT22;7534;50.762;7.000;2022-07-29T03:59:56;18.00;96.50
14884;DHT22;7534;50.762;7.000;2022-07-29T04:02:23;18.00;96.70
14884;DHT22;7534;50.762;7.000;2022-07-29T04:04:51;17.90;96.60
14884;DHT22;7534;50.762;7.000;2022-07-29T04:07:17;17.80;96.50
14884;DHT22;7534;50.762;7.000;2022-07-29T04:09:43;17.90;96.60
14884;DHT22;7534;50.762;7.000;2022-07-29T04:12:09;17.90;96.50
14884;DHT22;7534;50.762;7.000;2022-07-29T04:14:35;18.00;96.50
14884;DHT22;7534;50.762;7.000;2022-07-29T04:17:02;17.90;96.60
14884;DHT22;7534;50.762;7.000;2022-07-29T04:19:29;17.90;96.50
14884;DHT22;7534;50.762;7.000;2022-07-29T04:21:56;18.10;96.60
14884;DHT22;7534;50.762;7.000;2022-07-29T04:24:22;18.10;96.70
14884;DHT22;7534;50.762;7.000;2022-07-29T04:26:48;18.20;96.30
14884;DHT22;7534;50.762;7.000;2022-07-29T04:29:14;18.30;96.30
14884;DHT22;7534;50.762;7.000;2022-07-29T04:31:41;18.40;96.20
14884;DHT22;7534;50.762;7.000;2022-07-29T04:34:07;18.40;96.10
14884;DHT22;7534;50.762;7.000;2022-07-29T04:36:34;18.60;95.90
14884;DHT22;7534;50.762;7.000;2022-07-29T04:39:00;18.70;95.60
14884;DHT22;7534;50.762;7.000;2022-07-29T04:41:29;18.70;95.50
14884;DHT22;7534;50.762;7.000;2022-07-29T04:43:56;18.70;95.30
14884;DHT22;7534;50.762;7.000;2022-07-29T04:46:22;18.80;95.10
14884;DHT22;7534;50.762;7.000;2022-07-29T04:48:47;18.80;95.00
14884;DHT22;7534;50.762;7.000;2022-07-29T04:51:14;18.80;95.00
14884;DHT22;7534;50.762;7.000;2022-07-29T04:53:40;18.80;94.90
14884;DHT22;7534;50.762;7.000;2022-07-29T04:56:06;18.90;94.70
14884;DHT22;7534;50.762;7.000;2022-07-29T04:58:34;19.10;94.40
14884;DHT22;7534;50.762;7.000;2022-07-29T05:01:01;19.30;94.20
14884;DHT22;7534;50.762;7.000;2022-07-29T05:03:26;19.20;93.90
14884;DHT22;7534;50.762;7.000;2022-07-29T05:05:52;19.40;94.00
14884;DHT22;7534;50.762;7.000;2022-07-29T05:08:18;19.50;93.60
14884;DHT22;7534;50.762;7.000;2022-07-29T05:10:44;19.70;93.20
14884;DHT22;7534;50.762;7.000;2022-07-29T05:13:11;19.80;93.20
14884;DHT22;7534;50.762;7.000;2022-07-29T05:15:36;20.10;92.80
14884;DHT22;7534;50.762;7.000;2022-07-29T05:18:03;20.40;92.30
14884;DHT22;7534;50.762;7.000;2022-07-29T05:20:29;20.60;91.80
14884;DHT22;7534;50.762;7.000;2022-07-29T05:22:57;20.80;91.40
14884;DHT22;7534;50.762;7.000;2022-07-29T05:25:24;21.10;90.80
14884;DHT22;7534;50.762;7.000;2022-07-29T05:27:53;21.30;90.50
14884;DHT22;7534;50.762;7.000;2022-07-29T05:30:20;21.50;90.10
14884;DHT22;7534;50.762;7.000;2022-07-29T05:32:46;21.60;89.60
14884;DHT22;7534;50.762;7.000;2022-07-29T05:35:13;21.60;89.70
14884;DHT22;7534;50.762;7.000;2022-07-29T05:37:40;21.60;89.10
14884;DHT22;7534;50.762;7.000;2022-07-29T05:40:06;21.70;89.30
14884;DHT22;7534;50.762;7.000;2022-07-29T05:42:33;21.90;89.90
14884;DHT22;7534;50.762;7.000;2022-07-29T05:44:59;22.00;89.70
14884;DHT22;7534;50.762;7.000;2022-07-29T05:47:25;22.10;88.70
14884;DHT22;7534;50.762;7.000;2022-07-29T05:49:52;21.90;87.50
14884;DHT22;7534;50.762;7.000;2022-07-29T05:52:18;21.90;88.10
14884;DHT22;7534;50.762;7.000;2022-07-29T05:54:43;21.90;90.00
14884;DHT22;7534;50.762;7.000;2022-07-29T05:57:16;21.80;90.30
14884;DHT22;7534;50.762;7.000;2022-07-29T06:02:10;22.00;99.90
14884;DHT22;7534;50.762;7.000;2022-07-29T06:04:36;22.40;99.90
14884;DHT22;7534;50.762;7.000;2022-07-29T06:07:02;22.70;99.90
14884;DHT22;7534;50.762;7.000;2022-07-29T06:09:28;23.00;99.90
14884;DHT22;7534;50.762;7.000;2022-07-29T06:11:54;23.20;99.90
14884;DHT22;7534;50.762;7.000;2022-07-29T06:14:20;23.30;99.90
14884;DHT22;7534;50.762;7.000;2022-07-29T06:16:45;23.40;99.90
14884;DHT22;7534;50.762;7.000;2022-07-29T06:19:11;23.40;99.90
14884;DHT22;7534;50.762;7.000;2022-07-29T06:21:44;23.40;99.90
14884;DHT22;7534;50.762;7.000;2022-07-29T06:24:11;23.60;99.90
14884;DHT22;7534;50.762;7.000;2022-07-29T06:26:39;23.90;99.10
14884;DHT22;7534;50.762;7.000;2022-07-29T06:29:05;24.00;98.40
14884;DHT22;7534;50.762;7.000;2022-07-29T06:31:32;24.00;98.30
14884;DHT22;7534;50.762;7.000;2022-07-29T06:33:58;24.40;98.00
14884;DHT22;7534;50.762;7.000;2022-07-29T06:36:23;24.50;96.20
14884;DHT22;7534;50.762;7.000;2022-07-29T06:38:49;24.50;96.50
14884;DHT22;7534;50.762;7.000;2022-07-29T06:41:15;24.20;96.50
14884;DHT22;7534;50.762;7.000;2022-07-29T06:43:42;23.90;91.90
14884;DHT22;7534;50.762;7.000;2022-07-29T06:46:11;23.50;81.40
14884;DHT22;7534;50.762;7.000;2022-07-29T06:48:42;23.30;85.50
14884;DHT22;7534;50.762;7.000;2022-07-29T06:51:09;23.20;86.10
14884;DHT22;7534;50.762;7.000;2022-07-29T06:53:35;22.90;86.70
14884;DHT22;7534;50.762;7.000;2022-07-29T06:56:02;22.80;86.80
14884;DHT22;7534;50.762;7.000;2022-07-29T06:58:29;23.10;87.80
14884;DHT22;7534;50.762;7.000;2022-07-29T07:00:56;23.90;85.40
14884;DHT22;7534;50.762;7.000;2022-07-29T07:03:23;24.90;80.10
14884;DHT22;7534;50.762;7.000;2022-07-29T07:05:49;25.20;78.80
14884;DHT22;7534;50.762;7.000;2022-07-29T07:08:16;25.40;78.10
14884;DHT22;7534;50.762;7.000;2022-07-29T07:10:43;25.30;78.30
14884;DHT22;7534;50.762;7.000;2022-07-29T07:13:08;25.20;77.50
14884;DHT22;7534;50.762;7.000;2022-07-29T07:15:36;25.20;77.30
14884;DHT22;7534;50.762;7.000;2022-07-29T07:18:03;25.10;79.20
14884;DHT22;7534;50.762;7.000;2022-07-29T07:20:31;24.90;76.50
14884;DHT22;7534;50.762;7.000;2022-07-29T07:22:57;24.70;80.20
14884;DHT22;7534;50.762;7.000;2022-07-29T07:25:23;24.50;79.80
14884;DHT22;7534;50.762;7.000;2022-07-29T07:27:49;24.10;80.40
14884;DHT22;7534;50.762;7.000;2022-07-29T07:30:15;23.80;80.50
14884;DHT22;7534;50.762;7.000;2022-07-29T07:32:41;23.50;81.10
14884;DHT22;7534;50.762;7.000;2022-07-29T07:35:08;23.40;82.40
14884;DHT22;7534;50.762;7.000;2022-07-29T07:37:34;23.30;82.80
14884;DHT22;7534;50.762;7.000;2022-07-29T07:40:00;23.40;84.50
14884;DHT22;7534;50.762;7.000;2022-07-29T07:42:28;23.50;83.30
14884;DHT22;7534;50.762;7.000;2022-07-29T07:44:54;23.50;82.70
14884;DHT22;7534;50.762;7.000;2022-07-29T07:47:20;23.60;82.70
14884;DHT22;7534;50.762;7.000;2022-07-29T07:49:52;23.60;83.10
14884;DHT22;7534;50.762;7.000;2022-07-29T07:52:20;23.80;82.80
14884;DHT22;7534;50.762;7.000;2022-07-29T07:54:49;24.90;81.10
14884;DHT22;7534;50.762;7.000;2022-07-29T07:57:16;26.30;74.70
14884;DHT22;7534;50.762;7.000;2022-07-29T07:59:42;27.40;69.60
14884;DHT22;7534;50.762;7.000;2022-07-29T08:02:08;27.50;68.70
14884;DHT22;7534;50.762;7.000;2022-07-29T08:04:35;27.60;68.30
14884;DHT22;7534;50.762;7.000;2022-07-29T08:07:01;27.80;66.20
14884;DHT22;7534;50.762;7.000;2022-07-29T08:09:29;28.00;66.60
14884;DHT22;7534;50.762;7.000;2022-07-29T08:11:55;28.60;65.80
14884;DHT22;7534;50.762;7.000;2022-07-29T08:14:21;29.90;61.70
14884;DHT22;7534;50.762;7.000;2022-07-29T08:16:46;30.30;59.30
14884;DHT22;7534;50.762;7.000;2022-07-29T08:19:13;30.30;57.10
14884;DHT22;7534;50.762;7.000;2022-07-29T08:21:40;30.10;58.10
14884;DHT22;7534;50.762;7.000;2022-07-29T08:24:06;29.90;57.90
14884;DHT22;7534;50.762;7.000;2022-07-29T08:26:51;29.80;57.90
14884;DHT22;7534;50.762;7.000;2022-07-29T08:29:17;29.60;57.50
14884;DHT22;7534;50.762;7.000;2022-07-29T08:31:43;29.20;58.00
14884;DHT22;7534;50.762;7.000;2022-07-29T08:34:09;29.00;58.90
14884;DHT22;7534;50.762;7.000;2022-07-29T08:36:35;28.70;58.20
14884;DHT22;7534;50.762;7.000;2022-07-29T08:39:01;28.40;60.20
14884;DHT22;7534;50.762;7.000;2022-07-29T08:41:28;28.10;61.40
14884;DHT22;7534;50.762;7.000;2022-07-29T08:43:54;28.00;62.80
14884;DHT22;7534;50.762;7.000;2022-07-29T08:46:21;28.00;62.50
14884;DHT22;7534;50.762;7.000;2022-07-29T08:48:47;28.40;63.10
14884;DHT22;7534;50.762;7.000;2022-07-29T08:51:15;29.10;61.40
14884;DHT22;7534;50.762;7.000;2022-07-29T08:53:44;29.90;60.10
14884;DHT22;7534;50.762;7.000;2022-07-29T08:56:13;32.00;55.60
14884;DHT22;7534;50.762;7.000;2022-07-29T08:58:41;34.70;49.60
14884;DHT22;7534;50.762;7.000;2022-07-29T09:01:07;36.40;44.40
14884;DHT22;7534;50.762;7.000;2022-07-29T09:03:37;36.70;42.80
14884;DHT22;7534;50.762;7.000;2022-07-29T09:06:05;37.00;41.60
14884;DHT22;7534;50.762;7.000;2022-07-29T09:08:32;37.30;41.20
14884;DHT22;7534;50.762;7.000;2022-07-29T09:10:58;37.60;40.90
14884;DHT22;7534;50.762;7.000;2022-07-29T09:13:26;37.70;40.40
14884;DHT22;7534;50.762;7.000;2022-07-29T09:15:52;38.50;39.30
14884;DHT22;7534;50.762;7.000;2022-07-29T09:18:41;38.10;39.00
14884;DHT22;7534;50.762;7.000;2022-07-29T09:21:11;36.80;38.90
14884;DHT22;7534;50.762;7.000;2022-07-29T09:24:10;36.30;39.90
14884;DHT22;7534;50.762;7.000;2022-07-29T09:26:39;36.60;39.70
14884;DHT22;7534;50.762;7.000;2022-07-29T09:29:12;37.10;38.40
14884;DHT22;7534;50.762;7.000;2022-07-29T09:31:45;38.10;37.80
14884;DHT22;7534;50.762;7.000;2022-07-29T09:34:15;38.90;36.00
14884;DHT22;7534;50.762;7.000;2022-07-29T09:36:45;38.90;35.60
14884;DHT22;7534;50.762;7.000;2022-07-29T09:39:13;39.50;33.50
14884;DHT22;7534;50.762;7.000;2022-07-29T09:41:51;39.40;34.20
14884;DHT22;7534;50.762;7.000;2022-07-29T09:44:18;39.20;34.10
14884;DHT22;7534;50.762;7.000;2022-07-29T09:47:02;39.20;34.80
14884;DHT22;7534;50.762;7.000;2022-07-29T09:49:36;38.80;35.70
14884;DHT22;7534;50.762;7.000;2022-07-29T09:52:19;38.10;35.60
14884;DHT22;7534;50.762;7.000;2022-07-29T09:54:46;37.90;35.60
14884;DHT22;7534;50.762;7.000;2022-07-29T09:57:26;38.60;34.70
14884;DHT22;7534;50.762;7.000;2022-07-29T10:02:34;39.90;32.50
14884;DHT22;7534;50.762;7.000;2022-07-29T10:05:03;39.10;32.90
14884;DHT22;7534;50.762;7.000;2022-07-29T10:07:55;38.30;34.60
14884;DHT22;7534;50.762;7.000;2022-07-29T10:10:26;38.00;33.40
14884;DHT22;7534;50.762;7.000;2022-07-29T10:13:02;37.90;34.60
14884;DHT22;7534;50.762;7.000;2022-07-29T10:15:40;38.50;35.80
14884;DHT22;7534;50.762;7.000;2022-07-29T10:18:14;39.30;33.90
14884;DHT22;7534;50.762;7.000;2022-07-29T10:20:42;40.00;33.30
14884;DHT22;7534;50.762;7.000;2022-07-29T10:23:09;39.70;32.90
14884;DHT22;7534;50.762;7.000;2022-07-29T10:25:39;39.50;32.70
14884;DHT22;7534;50.762;7.000;2022-07-29T10:28:05;38.90;32.50
14884;DHT22;7534;50.762;7.000;2022-07-29T10:30:31;37.80;33.90
14884;DHT22;7534;50.762;7.000;2022-07-29T10:42:21;33.80;39.00
14884;DHT22;7534;50.762;7.000;2022-07-29T10:44:50;34.50;37.70
14884;DHT22;7534;50.762;7.000;2022-07-29T10:47:26;34.50;35.70
14884;DHT22;7534;50.762;7.000;2022-07-29T10:50:03;33.70;38.60
14884;DHT22;7534;50.762;7.000;2022-07-29T10:55:39;34.80;37.90
14884;DHT22;7534;50.762;7.000;2022-07-29T10:58:25;35.10;35.50
14884;DHT22;7534;50.762;7.000;2022-07-29T11:00:53;35.60;34.90
14884;DHT22;7534;50.762;7.000;2022-07-29T11:03:45;35.50;34.80
14884;DHT22;7534;50.762;7.000;2022-07-29T11:06:17;35.30;36.30
14884;DHT22;7534;50.762;7.000;2022-07-29T11:08:44;34.70;36.00
14884;DHT22;7534;50.762;7.000;2022-07-29T11:16:16;33.60;37.80
14884;DHT22;7534;50.762;7.000;2022-07-29T11:21:41;31.80;39.40
14884;DHT22;7534;50.762;7.000;2022-07-29T11:24:19;31.50;39.90
14884;DHT22;7534;50.762;7.000;2022-07-29T11:29:48;31.50;38.30
14884;DHT22;7534;50.762;7.000;2022-07-29T11:32:18;31.40;38.30
14884;DHT22;7534;50.762;7.000;2022-07-29T11:34:47;31.20;38.90
14884;DHT22;7534;50.762;7.000;2022-07-29T11:37:15;31.30;38.10
14884;DHT22;7534;50.762;7.000;2022-07-29T11:47:41;31.50;39.80
14884;DHT22;7534;50.762;7.000;2022-07-29T11:50:13;31.50;39.40
14884;DHT22;7534;50.762;7.000;2022-07-29T11:52:44;31.60;38.00
14884;DHT22;7534;50.762;7.000;2022-07-29T11:55:18;31.30;39.60
14884;DHT22;7534;50.762;7.000;2022-07-29T11:57:52;31.00;39.50
14884;DHT22;7534;50.762;7.000;2022-07-29T12:00:23;30.80;39.40
14884;DHT22;7534;50.762;7.000;2022-07-29T12:02:51;30.50;40.30
14884;DHT22;7534;50.762;7.000;2022-07-29T12:05:18;30.10;40.60
14884;DHT22;7534;50.762;7.000;2022-07-29T12:07:46;30.10;41.50
14884;DHT22;7534;50.762;7.000;2022-07-29T12:10:14;30.20;40.90
14884;DHT22;7534;50.762;7.000;2022-07-29T12:12:39;30.50;41.00
14884;DHT22;7534;50.762;7.000;2022-07-29T12:15:16;31.20;41.40
14884;DHT22;7534;50.762;7.000;2022-07-29T12:17:46;31.90;39.50
14884;DHT22;7534;50.762;7.000;2022-07-29T12:20:13;32.20;39.40
14884;DHT22;7534;50.762;7.000;2022-07-29T12:22:48;32.20;38.10
14884;DHT22;7534;50.762;7.000;2022-07-29T12:25:14;32.10;39.20
14884;DHT22;7534;50.762;7.000;2022-07-29T12:27:42;32.30;38.70
14884;DHT22;7534;50.762;7.000;2022-07-29T12:30:11;32.30;38.50
14884;DHT22;7534;50.762;7.000;2022-07-29T12:32:46;31.80;37.80
14884;DHT22;7534;50.762;7.000;2022-07-29T12:35:15;31.10;39.40
14884;DHT22;7534;50.762;7.000;2022-07-29T12:37:44;31.30;39.70
14884;DHT22;7534;50.762;7.000;2022-07-29T12:40:13;31.30;39.70
14884;DHT22;7534;50.762;7.000;2022-07-29T12:45:49;31.70;40.00
14884;DHT22;7534;50.762;7.000;2022-07-29T12:48:17;31.80;38.70
14884;DHT22;7534;50.762;7.000;2022-07-29T12:50:54;32.00;40.10
14884;DHT22;7534;50.762;7.000;2022-07-29T12:53:22;32.00;38.30
14884;DHT22;7534;50.762;7.000;2022-07-29T12:55:51;31.80;39.10
14884;DHT22;7534;50.762;7.000;2022-07-29T13:01:15;31.70;38.90
14884;DHT22;7534;50.762;7.000;2022-07-29T13:03:59;31.60;39.60
14884;DHT22;7534;50.762;7.000;2022-07-29T13:09:14;31.70;40.20
14884;DHT22;7534;50.762;7.000;2022-07-29T13:11:51;31.60;39.90
14884;DHT22;7534;50.762;7.000;2022-07-29T13:14:31;31.00;40.10
14884;DHT22;7534;50.762;7.000;2022-07-29T13:17:02;31.00;40.90
14884;DHT22;7534;50.762;7.000;2022-07-29T13:19:42;31.00;41.70
14884;DHT22;7534;50.762;7.000;2022-07-29T13:22:14;31.10;42.00
14884;DHT22;7534;50.762;7.000;2022-07-29T13:25:01;31.40;40.80
14884;DHT22;7534;50.762;7.000;2022-07-29T13:27:30;31.30;41.90
14884;DHT22;7534;50.762;7.000;2022-07-29T13:29:59;31.30;40.80
14884;DHT22;7534;50.762;7.000;2022-07-29T13:32:28;31.40;40.80
14884;DHT22;7534;50.762;7.000;2022-07-29T13:34:56;31.10;40.60
14884;DHT22;7534;50.762;7.000;2022-07-29T13:37:22;31.30;41.20
14884;DHT22;7534;50.762;7.000;2022-07-29T13:39:48;31.40;40.60
14884;DHT22;7534;50.762;7.000;2022-07-29T13:42:14;31.30;40.70
14884;DHT22;7534;50.762;7.000;2022-07-29T13:44:40;31.00;40.90
14884;DHT22;7534;50.762;7.000;2022-07-29T13:47:07;31.30;41.60
14884;DHT22;7534;50.762;7.000;2022-07-29T13:49:33;31.30;40.80
14884;DHT22;7534;50.762;7.000;2022-07-29T13:52:00;31.00;40.50
14884;DHT22;7534;50.762;7.000;2022-07-29T13:54:26;31.10;40.70
14884;DHT22;7534;50.762;7.000;2022-07-29T13:56:51;31.00;40.30
14884;DHT22;7534;50.762;7.000;2022-07-29T13:59:17;31.20;41.40
14884;DHT22;7534;50.762;7.000;2022-07-29T14:01:43;31.40;40.60
14884;DHT22;7534;50.762;7.000;2022-07-29T14:04:09;31.40;39.80
14884;DHT22;7534;50.762;7.000;2022-07-29T14:06:36;31.60;40.80
14884;DHT22;7534;50.762;7.000;2022-07-29T14:09:03;31.60;39.90
14884;DHT22;7534;50.762;7.000;2022-07-29T14:11:34;31.40;39.80
14884;DHT22;7534;50.762;7.000;2022-07-29T14:16:28;30.80;41.10
14884;DHT22;7534;50.762;7.000;2022-07-29T14:18:54;30.70;41.90
14884;DHT22;7534;50.762;7.000;2022-07-29T14:21:20;30.60;41.90
14884;DHT22;7534;50.762;7.000;2022-07-29T14:23:45;30.70;43.40
14884;DHT22;7534;50.762;7.000;2022-07-29T14:26:11;30.40;43.40
14884;DHT22;7534;50.762;7.000;2022-07-29T14:28:37;30.30;43.50
14884;DHT22;7534;50.762;7.000;2022-07-29T14:31:03;29.80;44.60
14884;DHT22;7534;50.762;7.000;2022-07-29T14:33:28;29.60;45.30
14884;DHT22;7534;50.762;7.000;2022-07-29T14:35:54;29.60;45.70
14884;DHT22;7534;50.762;7.000;2022-07-29T14:38:20;29.70;45.30
14884;DHT22;7534;50.762;7.000;2022-07-29T14:40:45;30.00;44.90
14884;DHT22;7534;50.762;7.000;2022-07-29T14:43:12;30.20;44.20
14884;DHT22;7534;50.762;7.000;2022-07-29T14:45:39;30.50;44.00
14884;DHT22;7534;50.762;7.000;2022-07-29T14:48:06;30.40;44.20
14884;DHT22;7534;50.762;7.000;2022-07-29T14:50:32;30.70;43.40
14884;DHT22;7534;50.762;7.000;2022-07-29T14:52:59;30.50;43.80
14884;DHT22;7534;50.762;7.000;2022-07-29T14:55:25;30.40;44.20
14884;DHT22;7534;50.762;7.000;2022-07-29T14:57:51;30.40;43.80
14884;DHT22;7534;50.762;7.000;2022-07-29T15:00:18;30.30;44.90
14884;DHT22;7534;50.762;7.000;2022-07-29T15:02:43;30.20;44.90
14884;DHT22;7534;50.762;7.000;2022-07-29T15:05:09;30.10;45.00
14884;DHT22;7534;50.762;7.000;2022-07-29T15:07:35;30.00;45.40
14884;DHT22;7534;50.762;7.000;2022-07-29T15:10:01;30.00;45.30
14884;DHT22;7534;50.762;7.000;2022-07-29T15:12:27;30.00;45.80
14884;DHT22;7534;50.762;7.000;2022-07-29T15:14:53;30.00;45.90
14884;DHT22;7534;50.762;7.000;2022-07-29T15:17:19;30.00;45.40
14884;DHT22;7534;50.762;7.000;2022-07-29T15:19:45;30.00;45.60
14884;DHT22;7534;50.762;7.000;2022-07-29T15:22:11;30.10;45.00
14884;DHT22;7534;50.762;7.000;2022-07-29T15:24:37;30.20;44.50
14884;DHT22;7534;50.762;7.000;2022-07-29T15:27:03;30.20;44.10
14884;DHT22;7534;50.762;7.000;2022-07-29T15:29:28;30.10;44.10
14884;DHT22;7534;50.762;7.000;2022-07-29T15:31:54;30.10;44.70
14884;DHT22;7534;50.762;7.000;2022-07-29T15:34:20;30.50;44.30
14884;DHT22;7534;50.762;7.000;2022-07-29T15:36:46;30.50;44.30
14884;DHT22;7534;50.762;7.000;2022-07-29T15:39:12;30.10;44.40
14884;DHT22;7534;50.762;7.000;2022-07-29T15:41:37;30.00;45.80
14884;DHT22;7534;50.762;7.000;2022-07-29T15:44:03;29.60;45.50
14884;DHT22;7534;50.762;7.000;2022-07-29T15:46:29;29.30;45.90
14884;DHT22;7534;50.762;7.000;2022-07-29T15:49:13;28.90;47.10
14884;DHT22;7534;50.762;7.000;2022-07-29T15:51:39;28.80;47.00
14884;DHT22;7534;50.762;7.000;2022-07-29T15:54:05;28.90;47.30
14884;DHT22;7534;50.762;7.000;2022-07-29T15:56:31;28.70;46.80
14884;DHT22;7534;50.762;7.000;2022-07-29T15:58:57;28.80;46.70
14884;DHT22;7534;50.762;7.000;2022-07-29T16:01:24;28.80;46.90
14884;DHT22;7534;50.762;7.000;2022-07-29T16:03:51;29.00;46.70
14884;DHT22;7534;50.762;7.000;2022-07-29T16:06:17;29.20;46.50
14884;DHT22;7534;50.762;7.000;2022-07-29T16:08:43;29.50;45.70
14884;DHT22;7534;50.762;7.000;2022-07-29T16:11:09;29.50;44.80
14884;DHT22;7534;50.762;7.000;2022-07-29T16:13:35;29.30;44.60
14884;DHT22;7534;50.762;7.000;2022-07-29T16:16:01;29.50;44.30
14884;DHT22;7534;50.762;7.000;2022-07-29T16:18:27;29.40;45.00
14884;DHT22;7534;50.762;7.000;2022-07-29T16:20:53;29.10;45.50
14884;DHT22;7534;50.762;7.000;2022-07-29T16:23:18;29.00;45.50
14884;DHT22;7534;50.762;7.000;2022-07-29T16:25:44;28.50;45.50
14884;DHT22;7534;50.762;7.000;2022-07-29T16:28:10;28.20;46.30
14884;DHT22;7534;50.762;7.000;2022-07-29T16:30:36;28.00;46.70
14884;DHT22;7534;50.762;7.000;2022-07-29T16:33:02;27.80;46.80
14884;DHT22;7534;50.762;7.000;2022-07-29T16:35:28;27.50;47.30
14884;DHT22;7534;50.762;7.000;2022-07-29T16:37:55;27.50;47.80
14884;DHT22;7534;50.762;7.000;2022-07-29T16:40:21;27.30;48.10
14884;DHT22;7534;50.762;7.000;2022-07-29T16:42:47;27.30;48.70
14884;DHT22;7534;50.762;7.000;2022-07-29T16:45:14;27.30;48.90
14884;DHT22;7534;50.762;7.000;2022-07-29T16:47:41;27.40;49.30
14884;DHT22;7534;50.762;7.000;2022-07-29T16:50:08;27.40;48.30